Time;durP1;ratioP1;P1;durP2;ratioP2;P2;SDS_P1;SDS_P2;PMS_P1;PMS_P2;Temp;Humidity;BMP_temperature;BMP_pressure;BME280_temperature;BME280_humidity;BME280_pressure;Samples;Min_cycle;Max_cycle;Signal;HPM_P1;HPM_P2
2022/04/14 00:01:49;;;;;;;17.77;15.30;;;13.90;99.90;;;;;;5053274;28;20471;-60
2022/04/14 00:04:16;;;;;;;19.00;14.87;;;13.80;99.90;;;;;;5054036;28;20437;-60
2022/04/14 00:06:43;;;;;;;18.93;14.70;;;13.80;99.90;;;;;;5053817;28;20455;-61
2022/04/14 00:09:10;;;;;;;19.30;14.60;;;13.80;99.90;;;;;;5055441;28;20444;-60
2022/04/14 00:11:38;;;;;;;21.27;14.77;;;13.80;99.90;;;;;;5055239;28;20447;-59
2022/04/14 00:14:05;;;;;;;20.63;15.60;;;13.80;99.90;;;;;;5053122;28;20476;-60
2022/04/14 00:16:33;;;;;;;19.67;14.70;;;13.80;99.90;;;;;;5053187;28;20447;-61
2022/04/14 00:19:01;;;;;;;20.10;15.00;;;13.80;99.90;;;;;;5053089;28;20497;-61
2022/04/14 00:21:28;;;;;;;18.20;15.10;;;13.70;99.90;;;;;;5052863;28;20478;-61
2022/04/14 00:23:56;;;;;;;19.20;15.30;;;13.70;99.90;;;;;;5055054;28;20421;-61
2022/04/14 00:26:23;;;;;;;21.10;16.20;;;13.60;99.90;;;;;;5056962;28;20436;-60
2022/04/14 00:28:50;;;;;;;20.07;14.90;;;13.50;99.90;;;;;;5057124;28;20455;-60
2022/04/14 00:31:17;;;;;;;19.37;16.30;;;13.50;99.90;;;;;;5056709;28;20444;-60
2022/04/14 00:33:44;;;;;;;20.30;14.30;;;13.50;99.90;;;;;;5056670;28;20447;-60
2022/04/14 00:36:12;;;;;;;22.50;15.60;;;13.40;99.90;;;;;;5057014;28;20448;-60
2022/04/14 00:38:39;;;;;;;18.77;14.97;;;13.40;99.90;;;;;;5056697;28;20440;-59
2022/04/14 00:41:06;;;;;;;20.40;15.17;;;13.40;99.90;;;;;;5056897;28;20447;-60
2022/04/14 00:43:35;;;;;;;20.30;15.77;;;13.40;99.90;;;;;;5056628;28;20984;-61
2022/04/14 00:46:03;;;;;;;22.90;16.47;;;13.40;99.90;;;;;;5056478;28;20844;-60
2022/04/14 00:48:32;;;;;;;22.13;16.20;;;13.40;99.90;;;;;;5056783;28;20448;-61
2022/04/14 00:51:00;;;;;;;22.37;15.47;;;13.50;99.90;;;;;;5056708;28;20455;-60
2022/04/14 00:53:29;;;;;;;23.33;16.47;;;13.40;99.90;;;;;;5056214;28;20474;-60
2022/04/14 00:55:56;;;;;;;23.20;16.70;;;13.50;99.90;;;;;;5056153;28;20991;-60
2022/04/14 00:58:23;;;;;;;22.27;15.80;;;13.50;99.90;;;;;;5056199;28;20932;-61
2022/04/14 01:00:50;;;;;;;20.33;16.90;;;13.40;99.90;;;;;;5056630;28;20441;-60
2022/04/14 01:03:18;;;;;;;22.50;16.43;;;13.40;99.90;;;;;;5056783;28;20521;-61
2022/04/14 01:05:46;;;;;;;22.27;16.70;;;13.40;99.90;;;;;;5056995;28;20484;-60
2022/04/14 01:08:17;;;;;;;21.00;15.90;;;13.40;99.90;;;;;;5056807;28;20849;-60
2022/04/14 01:10:48;;;;;;;17.60;15.47;;;13.30;99.90;;;;;;5057221;28;20460;-61
2022/04/14 01:13:16;;;;;;;25.13;16.90;;;13.40;99.90;;;;;;5056379;28;20499;-61
2022/04/14 01:15:43;;;;;;;25.00;17.60;;;13.30;99.90;;;;;;5056422;28;20475;-61
2022/04/14 01:18:10;;;;;;;19.23;15.80;;;13.30;99.90;;;;;;5055878;28;20448;-61
2022/04/14 01:20:41;;;;;;;22.27;16.97;;;13.30;99.90;;;;;;5056046;28;20451;-60
2022/04/14 01:23:10;;;;;;;23.13;17.23;;;13.30;99.90;;;;;;5055708;28;20476;-61
2022/04/14 01:25:39;;;;;;;19.70;16.10;;;13.40;99.90;;;;;;5056266;28;20440;-61
2022/04/14 01:28:07;;;;;;;22.77;16.00;;;13.40;99.90;;;;;;5055970;28;20447;-60
2022/04/14 01:30:36;;;;;;;20.97;16.80;;;13.30;99.90;;;;;;5056115;28;20451;-60
2022/04/14 01:33:04;;;;;;;21.53;17.97;;;13.30;99.90;;;;;;5055627;28;20468;-61
2022/04/14 01:35:31;;;;;;;25.07;18.10;;;13.40;99.90;;;;;;5055614;28;20476;-61
2022/04/14 01:37:58;;;;;;;20.90;17.63;;;13.30;99.90;;;;;;5054759;28;20451;-61
2022/04/14 01:40:25;;;;;;;22.60;16.47;;;13.30;99.90;;;;;;5055891;28;20448;-60
2022/04/14 01:42:53;;;;;;;19.53;17.00;;;13.40;99.90;;;;;;5055706;28;20464;-61
2022/04/14 01:45:20;;;;;;;20.77;16.53;;;13.30;99.90;;;;;;5056469;28;20451;-61
2022/04/14 01:47:48;;;;;;;18.27;15.40;;;13.40;99.90;;;;;;5055569;28;20444;-61
2022/04/14 01:50:18;;;;;;;17.53;14.23;;;13.40;99.90;;;;;;5056080;28;20492;-61
2022/04/14 01:52:45;;;;;;;19.70;13.47;;;13.30;99.90;;;;;;5056492;28;20468;-61
2022/04/14 01:55:13;;;;;;;19.60;14.30;;;13.40;99.90;;;;;;5056117;28;20515;-61
2022/04/14 01:57:40;;;;;;;20.47;12.50;;;13.40;99.90;;;;;;5056267;28;20482;-61
2022/04/14 02:00:12;;;;;;;18.77;13.33;;;13.30;99.90;;;;;;5055859;28;20514;-61
2022/04/14 02:02:40;;;;;;;13.67;11.80;;;13.30;99.90;;;;;;5055656;28;20469;-61
2022/04/14 02:05:08;;;;;;;17.70;11.73;;;13.30;99.90;;;;;;5055699;28;20451;-61
2022/04/14 02:07:35;;;;;;;17.80;13.23;;;13.30;99.90;;;;;;5055863;28;20471;-60
2022/04/14 02:10:03;;;;;;;13.53;11.87;;;13.30;99.90;;;;;;5055289;28;20448;-61
2022/04/14 02:12:31;;;;;;;15.77;12.00;;;13.20;99.90;;;;;;5055138;28;20460;-60
2022/04/14 02:14:58;;;;;;;18.43;13.93;;;13.20;99.90;;;;;;5055471;28;21014;-60
2022/04/14 02:17:26;;;;;;;17.03;12.77;;;13.20;99.90;;;;;;5055023;28;20448;-61
2022/04/14 02:19:53;;;;;;;16.03;11.93;;;13.20;99.90;;;;;;5054977;28;20440;-61
2022/04/14 02:22:20;;;;;;;19.40;12.33;;;13.10;99.90;;;;;;5054743;28;20479;-61
2022/04/14 02:24:47;;;;;;;16.70;11.40;;;13.10;99.90;;;;;;5056060;28;20440;-61
2022/04/14 02:27:14;;;;;;;15.40;12.77;;;13.10;99.90;;;;;;5054832;28;20459;-61
2022/04/14 02:29:43;;;;;;;13.17;11.20;;;13.00;99.90;;;;;;5055228;28;20448;-61
2022/04/14 02:32:10;;;;;;;11.67;10.10;;;12.90;99.90;;;;;;5054879;28;20521;-61
2022/04/14 02:34:39;;;;;;;12.53;9.97;;;12.90;99.90;;;;;;5054361;28;20479;-60
2022/04/14 02:37:06;;;;;;;12.43;10.00;;;12.80;99.90;;;;;;5054645;28;20451;-60
2022/04/14 02:39:33;;;;;;;13.77;10.30;;;12.70;99.90;;;;;;5054608;28;20471;-60
2022/04/14 02:42:00;;;;;;;14.00;10.10;;;12.70;99.90;;;;;;5054329;28;20979;-60
2022/04/14 02:44:27;;;;;;;10.83;9.00;;;12.60;99.90;;;;;;5054792;28;20448;-59
2022/04/14 02:46:54;;;;;;;15.43;9.93;;;12.50;99.90;;;;;;5054646;28;20963;-60
2022/04/14 02:49:23;;;;;;;12.20;9.87;;;12.50;99.90;;;;;;5053400;28;20459;-60
2022/04/14 02:51:51;;;;;;;12.90;9.97;;;12.50;99.90;;;;;;5054730;28;20563;-61
2022/04/14 02:54:18;;;;;;;13.17;9.70;;;12.40;99.90;;;;;;5054476;28;20459;-60
2022/04/14 02:56:45;;;;;;;10.90;9.80;;;12.40;99.90;;;;;;5054196;28;20546;-59
2022/04/14 02:59:12;;;;;;;13.53;9.43;;;12.40;99.90;;;;;;5054421;28;20452;-60
2022/04/14 03:01:40;;;;;;;8.93;8.00;;;12.40;99.90;;;;;;5054121;28;20464;-61
2022/04/14 03:04:07;;;;;;;10.93;8.80;;;12.40;99.90;;;;;;5053792;28;20444;-60
2022/04/14 03:06:34;;;;;;;9.10;7.60;;;12.30;99.90;;;;;;5054015;28;20456;-60
2022/04/14 03:09:02;;;;;;;11.47;8.90;;;12.30;99.90;;;;;;5054272;28;20459;-60
2022/04/14 03:11:29;;;;;;;11.30;9.00;;;12.30;99.90;;;;;;5054071;28;20451;-61
2022/04/14 03:13:56;;;;;;;10.57;9.00;;;12.30;99.90;;;;;;5054082;28;20815;-59
2022/04/14 03:16:23;;;;;;;10.00;8.80;;;12.30;99.90;;;;;;5053620;28;20482;-60
2022/04/14 03:18:50;;;;;;;9.57;8.13;;;12.30;99.90;;;;;;5053947;28;20564;-60
2022/04/14 03:21:18;;;;;;;10.17;9.17;;;12.30;99.90;;;;;;5053827;28;20813;-59
2022/04/14 03:23:45;;;;;;;8.70;7.80;;;12.30;99.90;;;;;;5113904;22;20485;-54
2022/04/14 03:26:13;;;;;;;9.57;7.53;;;12.30;99.90;;;;;;5114383;28;20437;-54
2022/04/14 03:28:40;;;;;;;7.57;6.53;;;12.20;99.90;;;;;;5114223;28;20457;-54
2022/04/14 03:31:07;;;;;;;10.17;7.10;;;12.20;99.90;;;;;;5113938;28;20458;-53
2022/04/14 03:33:34;;;;;;;7.83;6.77;;;12.20;99.90;;;;;;5114215;28;20464;-53
2022/04/14 03:36:01;;;;;;;7.70;6.90;;;12.20;99.90;;;;;;5114278;28;20504;-57
2022/04/14 03:38:28;;;;;;;10.13;7.40;;;12.20;99.90;;;;;;5114593;28;20475;-53
2022/04/14 03:40:55;;;;;;;11.03;8.50;;;12.20;99.90;;;;;;5115175;28;20933;-54
2022/04/14 03:43:24;;;;;;;10.97;8.37;;;12.20;99.90;;;;;;5114165;28;20465;-55
2022/04/14 03:45:51;;;;;;;8.23;7.50;;;12.20;99.90;;;;;;5113932;28;20955;-55
2022/04/14 03:48:18;;;;;;;10.07;8.27;;;12.20;99.90;;;;;;5114158;28;20441;-55
2022/04/14 03:50:45;;;;;;;9.73;8.73;;;12.10;99.90;;;;;;5114414;28;20452;-55
2022/04/14 03:53:12;;;;;;;10.67;8.50;;;12.10;99.90;;;;;;5114419;28;20477;-55
2022/04/14 03:55:39;;;;;;;10.53;8.00;;;12.10;99.90;;;;;;5113719;28;20476;-54
2022/04/14 03:58:06;;;;;;;10.57;7.90;;;12.10;99.90;;;;;;5113877;28;20452;-54
2022/04/14 04:00:35;;;;;;;10.20;8.90;;;12.10;99.90;;;;;;5113744;28;20819;-54
2022/04/14 04:03:02;;;;;;;10.03;8.60;;;12.10;99.90;;;;;;5114020;28;20464;-53
2022/04/14 04:05:29;;;;;;;11.03;9.20;;;12.10;99.90;;;;;;5114571;28;20444;-53
2022/04/14 04:09:39;;;;;;;11.13;9.70;;;12.10;99.90;;;;;;5091662;27;20818;-53
2022/04/14 04:12:07;;;;;;;13.50;10.80;;;12.10;99.90;;;;;;5090962;28;20509;-53
2022/04/14 04:14:34;;;;;;;17.20;11.20;;;12.10;99.90;;;;;;5090873;28;20469;-53
2022/04/14 04:17:01;;;;;;;14.30;11.38;;;12.10;99.90;;;;;;5090532;28;20809;-53
2022/04/14 04:19:28;;;;;;;16.60;12.63;;;12.10;99.90;;;;;;5090789;28;20200;-53
2022/04/14 04:21:55;;;;;;;16.60;11.77;;;12.00;99.90;;;;;;5090615;28;20470;-53
2022/04/14 04:24:22;;;;;;;16.07;12.10;;;12.10;99.90;;;;;;5090709;28;20807;-53
2022/04/14 04:26:50;;;;;;;15.40;13.40;;;12.00;99.90;;;;;;5090369;28;20950;-55
2022/04/14 04:29:17;;;;;;;19.60;15.37;;;12.10;99.90;;;;;;5091366;28;20501;-53
2022/04/14 04:31:45;;;;;;;16.97;13.50;;;12.10;99.90;;;;;;5090791;28;20805;-55
2022/04/14 04:34:12;;;;;;;17.80;13.60;;;12.10;99.90;;;;;;5091166;28;20438;-53
2022/04/14 04:36:39;;;;;;;15.53;12.20;;;12.10;99.90;;;;;;5091028;28;20453;-53
2022/04/14 04:39:06;;;;;;;15.07;10.63;;;12.10;99.90;;;;;;5091327;28;20442;-53
2022/04/14 04:41:33;;;;;;;20.83;14.10;;;12.10;99.90;;;;;;5091217;28;20442;-56
2022/04/14 04:44:01;;;;;;;16.43;11.43;;;12.10;99.90;;;;;;5090846;28;20473;-53
2022/04/14 04:46:28;;;;;;;12.83;10.67;;;12.10;99.90;;;;;;5091495;28;20455;-53
2022/04/14 04:48:55;;;;;;;14.47;11.10;;;12.10;99.90;;;;;;5090212;28;20474;-53
2022/04/14 04:51:24;;;;;;;16.80;10.80;;;12.10;99.90;;;;;;5090345;28;20529;-55
2022/04/14 04:53:52;;;;;;;13.50;10.37;;;12.10;99.90;;;;;;5090757;28;20471;-55
2022/04/14 04:56:19;;;;;;;10.30;8.93;;;12.10;99.90;;;;;;5090272;28;20964;-55
2022/04/14 04:58:46;;;;;;;10.70;9.67;;;12.10;99.90;;;;;;5089578;28;20438;-54
2022/04/14 05:01:16;;;;;;;10.40;9.03;;;12.20;99.90;;;;;;5089563;28;20442;-53
2022/04/14 05:03:43;;;;;;;14.03;9.53;;;12.10;99.90;;;;;;5089918;28;20492;-53
2022/04/14 05:06:10;;;;;;;12.67;8.90;;;12.10;99.90;;;;;;5089827;28;20545;-53
2022/04/14 05:08:37;;;;;;;12.60;8.97;;;12.10;99.90;;;;;;5089564;28;20577;-53
2022/04/14 05:11:04;;;;;;;12.40;9.20;;;12.20;99.90;;;;;;5089416;28;20442;-52
2022/04/14 05:13:32;;;;;;;10.53;8.47;;;12.20;99.90;;;;;;5089251;28;20473;-53
2022/04/14 05:15:59;;;;;;;7.97;7.20;;;12.20;99.90;;;;;;5089238;28;21021;-53
2022/04/14 05:18:27;;;;;;;9.60;7.00;;;12.20;99.90;;;;;;5089333;28;20820;-53
2022/04/14 05:20:55;;;;;;;8.20;7.37;;;12.20;99.90;;;;;;5076037;28;20952;-53
2022/04/14 05:23:22;;;;;;;7.80;7.00;;;12.20;99.90;;;;;;5076062;28;20562;-53
2022/04/14 05:25:49;;;;;;;14.17;8.20;;;12.20;99.90;;;;;;5075954;28;20443;-53
2022/04/14 05:28:16;;;;;;;10.70;8.10;;;12.20;99.90;;;;;;5075509;28;20510;-53
2022/04/14 05:30:43;;;;;;;11.00;8.03;;;12.20;99.90;;;;;;5075708;28;20885;-53
2022/04/14 05:33:11;;;;;;;11.60;8.53;;;12.20;99.90;;;;;;5075499;28;20467;-54
2022/04/14 05:35:43;;;;;;;12.30;8.33;;;12.30;99.90;;;;;;5075213;28;20458;-54
2022/04/14 05:38:10;;;;;;;10.93;7.73;;;12.20;99.90;;;;;;5075396;28;20478;-54
2022/04/14 05:40:41;;;;;;;12.03;9.07;;;12.30;99.90;;;;;;5075681;28;20447;-54
2022/04/14 05:43:09;;;;;;;9.63;7.80;;;12.30;99.90;;;;;;5075267;28;20845;-54
2022/04/14 05:45:37;;;;;;;8.10;6.80;;;12.30;99.90;;;;;;5075427;28;20442;-54
2022/04/14 05:48:05;;;;;;;10.07;7.13;;;12.30;99.90;;;;;;5075677;28;20510;-54
2022/04/14 05:50:32;;;;;;;7.10;6.40;;;12.30;99.90;;;;;;5075375;28;20823;-54
2022/04/14 05:53:00;;;;;;;9.17;7.50;;;12.40;99.90;;;;;;5072539;28;20466;-56
2022/04/14 05:55:29;;;;;;;10.00;8.10;;;12.30;99.90;;;;;;5074208;28;20466;-55
2022/04/14 05:57:56;;;;;;;9.70;8.40;;;12.40;99.90;;;;;;5073873;28;20451;-54
2022/04/14 06:00:23;;;;;;;13.10;9.87;;;12.40;99.90;;;;;;5075075;28;20447;-55
2022/04/14 06:02:50;;;;;;;11.23;8.77;;;12.40;99.90;;;;;;5074877;28;20468;-54
2022/04/14 06:05:17;;;;;;;13.60;10.23;;;12.40;99.90;;;;;;5074219;28;20460;-55
2022/04/14 06:07:44;;;;;;;21.33;13.33;;;12.40;99.90;;;;;;5074052;28;20451;-56
2022/04/14 06:10:12;;;;;;;21.00;14.70;;;12.40;99.90;;;;;;5074815;28;20434;-56
2022/04/14 06:12:39;;;;;;;21.43;15.37;;;12.40;99.90;;;;;;5074517;28;20974;-55
2022/04/14 06:15:09;;;;;;;22.30;16.00;;;12.40;99.90;;;;;;5073807;28;20454;-55
2022/04/14 06:17:36;;;;;;;23.70;15.27;;;12.30;99.90;;;;;;5074742;28;20451;-56
2022/04/14 06:20:03;;;;;;;21.90;13.80;;;12.40;99.90;;;;;;5074584;28;20439;-57
2022/04/14 06:22:31;;;;;;;17.40;12.50;;;12.40;99.90;;;;;;5073916;28;20502;-61
2022/04/14 06:24:58;;;;;;;20.33;13.20;;;12.40;99.90;;;;;;5054109;28;20963;-56
2022/04/14 06:27:27;;;;;;;16.30;10.53;;;12.40;99.90;;;;;;5054059;28;20982;-56
2022/04/14 06:29:54;;;;;;;13.17;10.23;;;12.50;99.90;;;;;;5054052;28;20993;-56
2022/04/14 06:32:21;;;;;;;13.93;9.20;;;12.50;99.90;;;;;;5067107;28;20469;-57
2022/04/14 06:34:48;;;;;;;14.97;10.00;;;12.50;99.90;;;;;;5074338;28;20454;-56
2022/04/14 06:37:15;;;;;;;11.13;8.67;;;12.50;99.90;;;;;;5073824;28;20443;-56
2022/04/14 06:39:42;;;;;;;17.20;10.77;;;12.50;99.90;;;;;;5073336;28;20444;-56
2022/04/14 06:42:09;;;;;;;17.20;10.90;;;12.50;99.90;;;;;;5073903;28;20466;-57
2022/04/14 06:44:37;;;;;;;15.20;9.93;;;12.60;99.90;;;;;;5074061;28;20447;-56
2022/04/14 06:47:05;;;;;;;14.90;9.70;;;12.60;99.90;;;;;;5072829;28;20971;-57
2022/04/14 06:49:32;;;;;;;14.93;10.23;;;12.70;99.90;;;;;;5073995;28;20482;-56
2022/04/14 06:52:01;;;;;;;13.03;10.37;;;12.60;99.90;;;;;;5073768;28;20793;-54
2022/04/14 06:54:28;;;;;;;12.70;8.93;;;12.70;99.90;;;;;;5073020;28;20455;-56
2022/04/14 06:56:55;;;;;;;16.20;10.10;;;12.80;99.90;;;;;;5073612;28;20450;-55
2022/04/14 06:59:22;;;;;;;11.20;9.53;;;12.90;99.90;;;;;;5072918;28;20451;-56
2022/04/14 07:01:51;;;;;;;15.53;9.70;;;13.00;99.90;;;;;;5073692;28;20817;-56
2022/04/14 07:04:18;;;;;;;9.80;8.60;;;13.10;99.90;;;;;;5073817;28;20443;-56
2022/04/14 07:06:46;;;;;;;10.47;7.93;;;13.20;99.90;;;;;;5073094;28;20816;-57
2022/04/14 07:09:13;;;;;;;10.17;8.43;;;13.20;99.90;;;;;;5072510;28;20880;-56
2022/04/14 07:11:40;;;;;;;13.70;9.83;;;13.30;99.90;;;;;;5073620;28;20451;-56
2022/04/14 07:14:07;;;;;;;9.10;8.20;;;13.40;99.90;;;;;;5073088;28;20471;-57
2022/04/14 07:16:34;;;;;;;10.50;8.63;;;13.50;99.90;;;;;;5072519;28;20907;-55
2022/04/14 07:19:02;;;;;;;11.47;7.30;;;13.50;99.90;;;;;;5072393;28;20451;-57
2022/04/14 07:21:29;;;;;;;10.00;8.00;;;13.60;99.90;;;;;;5073347;28;20942;-56
2022/04/14 07:23:56;;;;;;;7.83;6.80;;;13.70;99.90;;;;;;5073681;28;20470;-57
2022/04/14 07:26:24;;;;;;;9.70;7.40;;;13.70;99.90;;;;;;5072878;28;20450;-56
2022/04/14 07:28:51;;;;;;;12.30;8.40;;;13.80;99.90;;;;;;5073630;28;20840;-56
2022/04/14 07:31:18;;;;;;;11.40;7.80;;;13.90;99.90;;;;;;5073556;28;20814;-56
2022/04/14 07:33:45;;;;;;;11.93;7.70;;;13.90;99.90;;;;;;5072367;28;20463;-56
2022/04/14 07:36:18;;;;;;;11.40;7.60;;;14.00;99.90;;;;;;5073447;28;20459;-56
2022/04/14 07:38:45;;;;;;;10.13;6.97;;;14.10;99.90;;;;;;5073187;28;20432;-56
2022/04/14 07:41:13;;;;;;;8.83;6.63;;;14.20;99.90;;;;;;5072178;28;20439;-56
2022/04/14 07:43:40;;;;;;;8.83;6.97;;;14.30;99.90;;;;;;5072896;28;20467;-55
2022/04/14 07:46:07;;;;;;;12.17;7.83;;;14.30;99.90;;;;;;5073259;28;20450;-56
2022/04/14 07:48:34;;;;;;;7.80;7.00;;;14.40;99.90;;;;;;5072218;28;20572;-56
2022/04/14 07:51:02;;;;;;;11.83;7.77;;;14.50;99.90;;;;;;5073312;28;20446;-56
2022/04/14 07:53:31;;;;;;;9.13;6.90;;;14.60;99.90;;;;;;5072923;28;20463;-56
2022/04/14 07:55:58;;;;;;;11.20;7.10;;;14.70;99.90;;;;;;5073222;28;20458;-56
2022/04/14 07:58:26;;;;;;;11.23;7.70;;;14.80;99.90;;;;;;5071813;28;20451;-55
2022/04/14 08:00:55;;;;;;;8.80;7.50;;;14.80;99.90;;;;;;5073018;28;20449;-56
2022/04/14 08:03:22;;;;;;;11.47;7.10;;;14.90;99.90;;;;;;5071612;28;20478;-55
2022/04/14 08:05:49;;;;;;;15.57;7.73;;;15.00;99.90;;;;;;5072665;28;20451;-55
2022/04/14 08:08:18;;;;;;;8.03;6.30;;;15.10;99.90;;;;;;5072615;28;20503;-54
2022/04/14 08:10:49;;;;;;;8.23;6.60;;;15.30;99.90;;;;;;5071956;28;20513;-55
2022/04/14 08:13:17;;;;;;;8.27;6.40;;;15.50;99.90;;;;;;5072908;28;20510;-56
2022/04/14 08:15:44;;;;;;;8.63;6.13;;;15.70;99.90;;;;;;5073224;28;20443;-55
2022/04/14 08:18:12;;;;;;;11.20;6.63;;;15.90;99.90;;;;;;5072230;28;20443;-56
2022/04/14 08:20:40;;;;;;;8.40;5.50;;;16.00;99.90;;;;;;5073411;28;20451;-55
2022/04/14 08:23:11;;;;;;;9.33;6.47;;;16.10;99.90;;;;;;5073057;28;20528;-58
2022/04/14 08:25:38;;;;;;;7.67;6.00;;;16.30;99.90;;;;;;5072051;28;20493;-56
2022/04/14 08:28:08;;;;;;;9.67;7.33;;;16.30;99.90;;;;;;5072801;28;20447;-56
2022/04/14 08:30:37;;;;;;;10.10;6.20;;;16.30;99.90;;;;;;5072590;28;20470;-56
2022/04/14 08:33:06;;;;;;;8.40;6.60;;;16.20;99.90;;;;;;5071493;28;20463;-57
2022/04/14 08:35:35;;;;;;;10.13;6.97;;;16.30;99.90;;;;;;5072545;28;20465;-56
2022/04/14 08:38:03;;;;;;;11.90;7.80;;;16.40;99.90;;;;;;5072451;28;20446;-55
2022/04/14 08:40:35;;;;;;;8.50;7.47;;;16.30;99.90;;;;;;5072224;28;20443;-56
2022/04/14 08:43:04;;;;;;;12.10;8.07;;;16.30;99.90;;;;;;5072816;28;20467;-54
2022/04/14 08:45:34;;;;;;;11.80;8.77;;;16.30;99.90;;;;;;5072291;28;20443;-57
2022/04/14 08:48:03;;;;;;;14.23;7.90;;;16.30;99.90;;;;;;5072002;28;20548;-57
2022/04/14 08:50:32;;;;;;;10.40;7.93;;;16.40;99.90;;;;;;5071247;28;20472;-55
2022/04/14 08:53:00;;;;;;;12.90;8.33;;;16.50;99.90;;;;;;5071884;28;20554;-55
2022/04/14 08:55:29;;;;;;;13.27;9.20;;;16.80;99.90;;;;;;5074574;28;20451;-55
2022/04/14 08:57:56;;;;;;;16.80;9.87;;;17.00;99.90;;;;;;5075012;28;20778;-56
2022/04/14 09:00:23;;;;;;;13.23;10.40;;;17.20;99.90;;;;;;5076445;28;20446;-55
2022/04/14 09:02:56;;;;;;;14.67;11.47;;;17.20;99.90;;;;;;5076117;28;20479;-55
2022/04/14 09:05:23;;;;;;;15.30;12.57;;;17.20;99.90;;;;;;5075174;28;20867;-55
2022/04/14 09:07:50;;;;;;;13.43;11.30;;;17.20;99.90;;;;;;5076252;28;20458;-55
2022/04/14 09:10:18;;;;;;;15.37;11.53;;;17.10;99.30;;;;;;5075595;28;20986;-55
2022/04/14 09:12:46;;;;;;;14.00;11.03;;;17.00;99.00;;;;;;5078342;28;20463;-55
2022/04/14 09:15:13;;;;;;;15.40;12.10;;;16.80;99.10;;;;;;5078269;28;20465;-54
2022/04/14 09:17:40;;;;;;;17.40;11.73;;;16.70;99.60;;;;;;5077234;28;20454;-55
2022/04/14 09:20:31;;;;;;;15.27;11.23;;;16.70;99.70;;;;;;5076654;28;20807;-56
2022/04/14 09:23:20;;;;;;;26.43;12.33;;;16.70;99.60;;;;;;5076090;28;20467;-56
2022/04/14 09:25:52;;;;;;;20.27;12.37;;;16.70;99.60;;;;;;5075775;28;20506;-57
2022/04/14 09:28:21;;;;;;;15.50;11.50;;;16.70;99.70;;;;;;5072999;28;20442;-56
2022/04/14 09:31:02;;;;;;;16.20;10.90;;;16.90;99.20;;;;;;5075419;28;20515;-55
2022/04/14 09:33:30;;;;;;;17.13;11.40;;;17.00;98.50;;;;;;5075070;28;20558;-55
2022/04/14 09:36:13;;;;;;;18.80;11.50;;;17.00;97.70;;;;;;5074454;28;20454;-57
2022/04/14 09:39:00;;;;;;;15.67;11.60;;;17.00;97.00;;;;;;5074601;28;20462;-55
2022/04/14 09:41:29;;;;;;;17.67;11.90;;;17.00;96.40;;;;;;5075701;28;20477;-56
2022/04/14 09:43:57;;;;;;;13.87;10.63;;;17.00;96.50;;;;;;5075228;28;20847;-55
2022/04/14 09:46:24;;;;;;;13.10;11.73;;;17.00;96.30;;;;;;5075478;28;20447;-55
2022/04/14 09:49:08;;;;;;;11.63;10.27;;;17.10;96.10;;;;;;5075809;28;20455;-54
2022/04/14 09:51:39;;;;;;;18.13;13.13;;;17.30;95.60;;;;;;5075634;28;20443;-55
2022/04/14 09:54:11;;;;;;;14.43;11.83;;;17.30;94.60;;;;;;5074841;28;20479;-54
2022/04/14 09:56:46;;;;;;;13.50;11.00;;;17.30;94.80;;;;;;5076277;28;20424;-55
2022/04/14 09:59:16;;;;;;;14.77;11.50;;;17.30;94.40;;;;;;5074376;28;20442;-55
2022/04/14 10:01:43;;;;;;;16.60;12.83;;;17.30;94.20;;;;;;5075774;28;20497;-55
2022/04/14 10:04:29;;;;;;;17.87;12.67;;;17.30;94.00;;;;;;5075545;28;20443;-55
2022/04/14 10:07:09;;;;;;;15.17;11.57;;;17.30;94.00;;;;;;5074715;28;20799;-55
2022/04/14 10:09:38;;;;;;;17.73;12.10;;;17.30;94.20;;;;;;5074867;28;20565;-55
2022/04/14 10:12:21;;;;;;;18.57;12.63;;;17.60;93.90;;;;;;5074708;28;20467;-55
2022/04/14 10:14:59;;;;;;;17.03;12.40;;;17.70;93.60;;;;;;5074830;28;20451;-54
2022/04/14 10:17:28;;;;;;;15.70;12.70;;;17.80;92.80;;;;;;5074153;28;20455;-54
2022/04/14 10:19:55;;;;;;;15.80;11.83;;;17.90;92.60;;;;;;5074189;28;20451;-54
2022/04/14 10:22:25;;;;;;;15.83;12.20;;;17.90;92.10;;;;;;5074934;28;20813;-55
2022/04/14 10:24:53;;;;;;;17.60;12.43;;;17.80;91.90;;;;;;5075392;28;20504;-54
2022/04/14 10:27:22;;;;;;;18.40;13.20;;;17.80;91.50;;;;;;5074727;28;20496;-55
2022/04/14 10:29:49;;;;;;;14.67;12.23;;;17.80;91.20;;;;;;5074104;28;20537;-55
2022/04/14 10:32:17;;;;;;;12.23;10.93;;;17.90;91.20;;;;;;5074926;28;20467;-55
2022/04/14 10:34:46;;;;;;;15.20;11.73;;;18.00;91.00;;;;;;5074445;28;20455;-57
2022/04/14 10:37:18;;;;;;;14.37;11.90;;;18.00;90.60;;;;;;5055251;28;20444;-55
2022/04/14 10:39:49;;;;;;;15.43;11.30;;;18.10;90.50;;;;;;5054507;28;20801;-55
2022/04/14 10:42:23;;;;;;;15.10;12.90;;;18.20;89.50;;;;;;5054798;28;20533;-55
2022/04/14 10:44:51;;;;;;;14.10;11.17;;;18.30;90.00;;;;;;5071307;28;20435;-54
2022/04/14 10:47:35;;;;;;;18.87;12.23;;;18.30;88.90;;;;;;5075881;28;20454;-55
2022/04/14 10:50:03;;;;;;;15.67;11.80;;;18.30;88.70;;;;;;5074699;28;20483;-55
2022/04/14 10:52:30;;;;;;;15.70;11.60;;;18.30;88.50;;;;;;5073722;28;20471;-55
2022/04/14 10:54:59;;;;;;;16.00;12.73;;;18.40;88.40;;;;;;5074222;28;20462;-54
2022/04/14 10:57:39;;;;;;;14.07;10.73;;;18.40;87.90;;;;;;5080138;28;20454;-55
2022/04/14 11:00:36;;;;;;;12.23;10.83;;;18.40;88.60;;;;;;5072725;28;20450;-55
2022/04/14 11:03:04;;;;;;;12.13;10.83;;;18.50;87.60;;;;;;5072959;28;20546;-54
2022/04/14 11:05:45;;;;;;;12.73;10.73;;;18.50;86.30;;;;;;5074194;28;20470;-56
2022/04/14 11:08:26;;;;;;;12.63;10.77;;;18.50;85.20;;;;;;5073619;28;20458;-55
2022/04/14 11:10:56;;;;;;;12.13;9.60;;;18.50;84.20;;;;;;5073634;28;20477;-55
2022/04/14 11:13:23;;;;;;;11.40;9.50;;;18.60;83.80;;;;;;5072789;28;20505;-55
2022/04/14 11:15:52;;;;;;;10.17;9.07;;;18.70;83.50;;;;;;5073531;28;20450;-55
2022/04/14 11:18:19;;;;;;;11.87;8.83;;;18.70;82.10;;;;;;5072851;28;20451;-55
2022/04/14 11:20:54;;;;;;;11.63;8.10;;;18.60;81.10;;;;;;5072429;28;20957;-56
2022/04/14 11:23:26;;;;;;;9.10;8.03;;;18.60;81.30;;;;;;5073482;28;20471;-54
2022/04/14 11:26:03;;;;;;;10.73;8.00;;;18.70;80.70;;;;;;5073376;28;20437;-55
2022/04/14 11:28:31;;;;;;;9.80;7.20;;;18.90;79.80;;;;;;5071457;28;20447;-55
2022/04/14 11:31:00;;;;;;;9.80;8.03;;;19.10;78.60;;;;;;5073262;28;20479;-55
2022/04/14 11:33:37;;;;;;;9.57;7.33;;;19.30;76.30;;;;;;5073913;28;20494;-56
2022/04/14 11:36:12;;;;;;;8.20;6.93;;;19.30;74.80;;;;;;5073128;28;20462;-57
2022/04/14 11:38:59;;;;;;;9.27;7.87;;;19.30;75.00;;;;;;5072831;28;20435;-55
2022/04/14 11:41:32;;;;;;;9.47;7.70;;;19.50;74.40;;;;;;5072041;28;20955;-55
2022/04/14 11:44:01;;;;;;;8.23;7.43;;;19.50;73.50;;;;;;5056736;28;20929;-55
2022/04/14 11:46:32;;;;;;;10.37;7.93;;;19.40;73.10;;;;;;5072987;28;20478;-55
2022/04/14 11:49:00;;;;;;;8.53;7.63;;;19.20;74.00;;;;;;5071968;28;20439;-57
2022/04/14 11:51:28;;;;;;;10.20;7.27;;;19.00;74.40;;;;;;5072977;28;20487;-55
2022/04/14 11:53:56;;;;;;;11.33;8.80;;;18.80;75.20;;;;;;5067783;28;20535;-55
2022/04/14 11:56:24;;;;;;;10.90;8.33;;;18.50;75.10;;;;;;5072753;28;20447;-55
2022/04/14 11:58:53;;;;;;;11.27;8.33;;;18.60;75.20;;;;;;5072963;28;20483;-55
2022/04/14 12:01:21;;;;;;;8.57;7.63;;;19.40;73.00;;;;;;5072095;28;20443;-54
2022/04/14 12:03:48;;;;;;;9.60;8.07;;;20.00;68.10;;;;;;5072653;28;20841;-54
2022/04/14 12:06:17;;;;;;;9.10;8.10;;;20.40;64.50;;;;;;5072228;28;20450;-55
2022/04/14 12:08:54;;;;;;;10.90;7.80;;;21.00;61.90;;;;;;5072857;28;20466;-55
2022/04/14 12:11:21;;;;;;;8.73;7.03;;;21.70;59.50;;;;;;5072599;28;20962;-55
2022/04/14 12:13:48;;;;;;;7.80;6.70;;;22.30;57.80;;;;;;5071979;28;20480;-56
2022/04/14 12:16:17;;;;;;;8.10;7.27;;;22.70;56.10;;;;;;5072767;28;20540;-54
2022/04/14 12:18:51;;;;;;;8.57;7.67;;;22.70;55.10;;;;;;5073048;28;20448;-56
2022/04/14 12:21:20;;;;;;;11.30;8.60;;;22.20;55.50;;;;;;5072600;28;20592;-56
2022/04/14 12:23:48;;;;;;;9.03;8.00;;;21.60;56.40;;;;;;5072899;28;20467;-55
2022/04/14 12:26:17;;;;;;;11.87;8.63;;;21.00;57.20;;;;;;5071852;28;20494;-55
2022/04/14 12:28:45;;;;;;;11.13;9.70;;;20.50;58.40;;;;;;5071940;28;20486;-55
2022/04/14 12:31:13;;;;;;;9.53;8.13;;;20.10;58.80;;;;;;5074747;28;20479;-55
2022/04/14 12:33:42;;;;;;;12.03;9.43;;;19.80;59.80;;;;;;5076357;28;20474;-56
2022/04/14 12:36:12;;;;;;;11.40;10.20;;;19.70;60.90;;;;;;5075134;28;20449;-56
2022/04/14 12:38:43;;;;;;;12.07;10.17;;;19.50;62.10;;;;;;5076086;28;20436;-55
2022/04/14 12:41:15;;;;;;;11.60;9.60;;;19.50;63.00;;;;;;5076238;28;20471;-56
2022/04/14 12:43:45;;;;;;;11.73;10.10;;;19.50;63.80;;;;;;5077030;28;20804;-57